Time;durP1;ratioP1;P1;durP2;ratioP2;P2;SDS_P1;SDS_P2;PMS_P1;PMS_P2;Temp;Humidity;BMP_temperature;BMP_pressure;BME280_temperature;BME280_humidity;BME280_pressure;Samples;Min_cycle;Max_cycle;Signal;HPM_P1;HPM_P2
2023/09/12 00:00:54;;;;;;;2.07;1.97;;;;;;;21.19;85.27;95202.44;4418076;32;20207;-64
2023/09/12 00:03:21;;;;;;;2.53;2.43;;;;;;;21.12;85.03;95205.81;4400135;32;20258;-65
2023/09/12 00:05:53;;;;;;;3.53;3.33;;;;;;;21.03;85.63;95207.97;4414062;32;20196;-64
2023/09/12 00:08:18;;;;;;;3.10;2.90;;;;;;;21.08;84.32;95210.38;4415805;32;20212;-65
2023/09/12 00:10:43;;;;;;;4.27;3.20;;;;;;;21.17;84.52;95208.22;4416864;32;20243;-65
2023/09/12 00:13:09;;;;;;;3.00;2.33;;;;;;;21.04;84.85;95193.34;4413933;32;20215;-64
2023/09/12 00:15:34;;;;;;;3.00;2.90;;;;;;;21.00;84.51;95203.31;4407727;32;20211;-65
2023/09/12 00:17:59;;;;;;;2.10;1.90;;;;;;;21.05;84.22;95200.31;4407906;32;20204;-64
2023/09/12 00:20:24;;;;;;;2.30;2.20;;;;;;;21.09;83.95;95198.44;4400357;32;20233;-64
2023/09/12 00:22:50;;;;;;;3.07;2.97;;;;;;;21.08;84.08;95194.19;4401518;32;20267;-64
2023/09/12 00:25:16;;;;;;;2.50;2.40;;;;;;;21.08;84.21;95194.19;4415231;32;20195;-64
2023/09/12 00:27:41;;;;;;;5.17;3.70;;;;;;;21.02;83.89;95187.53;4414376;32;20214;-64
2023/09/12 00:30:07;;;;;;;3.37;2.80;;;;;;;21.07;83.84;95195.31;4400576;32;20191;-65
2023/09/12 00:32:32;;;;;;;2.23;2.13;;;;;;;21.03;83.81;95189.09;4400935;32;20187;-64
2023/09/12 00:34:57;;;;;;;4.27;2.60;;;;;;;21.01;83.53;95187.91;4419155;32;20192;-64
2023/09/12 00:37:23;;;;;;;2.70;2.60;;;;;;;20.95;84.02;95192.06;4417887;32;20206;-65
2023/09/12 00:39:48;;;;;;;2.43;2.30;;;;;;;20.99;83.95;95179.41;4415757;32;20235;-64
2023/09/12 00:42:13;;;;;;;1.90;1.80;;;;;;;21.00;84.43;95184.41;4401360;32;20239;-64
2023/09/12 00:44:39;;;;;;;2.87;2.77;;;;;;;20.95;84.41;95182.06;4414753;32;20241;-64
2023/09/12 00:47:05;;;;;;;2.87;2.73;;;;;;;20.94;84.09;95180.50;4415149;32;20199;-64
2023/09/12 00:49:31;;;;;;;2.50;2.40;;;;;;;20.85;84.22;95174.56;4414790;32;20195;-67
2023/09/12 00:51:58;;;;;;;3.50;3.30;;;;;;;20.89;84.27;95175.41;4418716;32;20207;-65
2023/09/12 00:54:23;;;;;;;3.60;2.53;;;;;;;20.87;84.20;95173.06;4416359;32;20214;-64
2023/09/12 00:56:49;;;;;;;2.67;2.57;;;;;;;20.90;83.72;95166.94;4417565;32;20231;-65
2023/09/12 00:59:18;;;;;;;3.60;3.30;;;;;;;20.92;83.62;95167.38;4416033;32;20297;-64
2023/09/12 01:01:43;;;;;;;1.40;1.40;;;;;;;20.92;83.94;95169.28;4417055;32;20188;-65
2023/09/12 01:04:10;;;;;;;2.83;2.63;;;;;;;20.91;84.18;95165.81;4417298;32;20278;-65
2023/09/12 01:06:35;;;;;;;2.23;2.13;;;;;;;20.93;83.97;95165.44;4417411;32;20200;-65
2023/09/12 01:09:00;;;;;;;3.27;2.97;;;;;;;20.87;84.10;95166.91;4402063;32;20201;-67
2023/09/12 01:11:27;;;;;;;3.17;3.00;;;;;;;20.71;84.12;95160.87;4413006;32;20184;-65
2023/09/12 01:13:52;;;;;;;2.53;2.43;;;;;;;20.68;84.12;95158.91;4412810;32;20191;-64
2023/09/12 01:16:17;;;;;;;2.50;2.40;;;;;;;20.75;84.68;95164.41;4416327;32;20203;-64
2023/09/12 01:18:43;;;;;;;2.33;2.23;;;;;;;20.64;84.45;95164.22;4416439;32;20191;-64
2023/09/12 01:21:38;;;;;;;2.63;2.53;;;;;;;20.67;84.83;95158.12;4391345;32;20265;-64
2023/09/12 01:24:26;;;;;;;3.10;2.93;;;;;;;20.65;85.40;95165.00;4379605;32;20218;-64
2023/09/12 01:27:31;;;;;;;2.67;2.57;;;;;;;20.62;85.13;95160.31;4409964;32;20210;-64
2023/09/12 01:30:00;;;;;;;4.83;2.63;;;;;;;20.61;84.64;95167.63;4373411;32;20192;-64
2023/09/12 01:32:26;;;;;;;2.23;2.13;;;;;;;20.61;84.79;95169.56;4398607;32;20244;-65
2023/09/12 01:34:51;;;;;;;2.57;2.47;;;;;;;20.49;84.88;95170.53;4409257;32;20183;-64
2023/09/12 01:37:17;;;;;;;2.70;2.60;;;;;;;20.45;85.65;95164.28;4410206;32;20218;-65
2023/09/12 01:39:42;;;;;;;2.63;2.53;;;;;;;20.38;86.66;95156.09;4415200;32;20183;-64
2023/09/12 01:42:14;;;;;;;2.33;2.23;;;;;;;20.31;86.35;95167.50;4401076;32;20184;-64
2023/09/12 01:44:42;;;;;;;2.43;2.23;;;;;;;20.37;85.60;95163.38;4396824;32;20210;-65
2023/09/12 01:47:10;;;;;;;2.77;2.67;;;;;;;20.24;85.95;95162.78;4383147;32;20188;-65
2023/09/12 01:49:37;;;;;;;1.93;1.83;;;;;;;20.33;85.13;95164.47;4412238;32;20202;-64
2023/09/12 01:52:03;;;;;;;2.83;2.60;;;;;;;20.31;86.15;95172.91;4414609;32;20183;-65
2023/09/12 01:54:29;;;;;;;2.67;2.57;;;;;;;20.18;85.51;95168.81;4406982;32;20187;-65
2023/09/12 01:56:57;;;;;;;2.53;2.43;;;;;;;20.19;86.06;95168.44;4413600;32;20191;-65
2023/09/12 01:59:23;;;;;;;4.67;2.47;;;;;;;20.33;86.29;95173.31;4397440;32;20196;-63
2023/09/12 02:01:49;;;;;;;2.23;2.13;;;;;;;20.15;86.20;95175.72;4416057;32;20215;-64
2023/09/12 02:04:14;;;;;;;2.07;1.97;;;;;;;20.34;85.76;95182.97;4417881;32;20210;-63
2023/09/12 02:06:39;;;;;;;3.27;2.97;;;;;;;20.40;85.19;95184.22;4404752;32;20211;-64
2023/09/12 02:09:05;;;;;;;2.53;2.43;;;;;;;20.26;85.39;95178.56;4408450;32;20207;-64
2023/09/12 02:11:30;;;;;;;3.23;3.13;;;;;;;20.12;85.79;95181.81;4428186;32;20213;-64
2023/09/12 02:13:55;;;;;;;2.10;2.00;;;;;;;20.33;85.27;95192.19;4428731;32;20191;-63
2023/09/12 02:16:20;;;;;;;6.90;3.17;;;;;;;20.05;84.96;95180.88;4406004;32;20199;-63
2023/09/12 02:18:46;;;;;;;3.27;3.00;;;;;;;20.29;85.61;95190.56;4410499;32;20198;-63
2023/09/12 02:21:11;;;;;;;2.20;2.10;;;;;;;20.10;85.58;95194.06;4406678;32;20221;-63
2023/09/12 02:23:37;;;;;;;2.43;2.23;;;;;;;20.03;86.91;95183.16;4415830;32;20187;-64
2023/09/12 02:26:02;;;;;;;3.10;2.63;;;;;;;20.00;85.27;95184.66;4407471;32;20189;-64
2023/09/12 02:28:28;;;;;;;2.07;1.97;;;;;;;20.14;86.37;95189.53;4408505;32;20224;-63
2023/09/12 02:30:53;;;;;;;2.60;2.50;;;;;;;20.14;85.46;95187.62;4406625;32;20187;-63
2023/09/12 02:33:18;;;;;;;2.60;2.50;;;;;;;20.06;86.40;95193.22;4417232;32;20210;-63
2023/09/12 02:35:43;;;;;;;2.37;2.27;;;;;;;20.20;85.50;95188.09;4413174;32;20222;-63
2023/09/12 02:38:09;;;;;;;2.77;2.57;;;;;;;20.17;85.17;95188.78;4418594;32;20266;-63
2023/09/12 02:40:34;;;;;;;2.53;2.43;;;;;;;20.00;85.71;95192.72;4403655;32;20196;-63
2023/09/12 02:42:59;;;;;;;2.20;2.10;;;;;;;20.19;85.93;95194.59;4407419;32;20188;-63
2023/09/12 02:45:25;;;;;;;2.13;2.03;;;;;;;20.12;85.89;95192.59;4405929;32;20267;-63
2023/09/12 02:47:50;;;;;;;2.70;2.60;;;;;;;20.15;86.04;95193.78;4413735;32;20263;-63
2023/09/12 02:50:16;;;;;;;3.07;2.97;;;;;;;20.08;86.38;95190.94;4415236;32;20200;-64
2023/09/12 02:52:42;;;;;;;2.37;2.27;;;;;;;19.97;85.37;95195.34;4415741;32;20199;-64
2023/09/12 02:55:07;;;;;;;2.93;2.77;;;;;;;20.15;85.80;95191.09;4411388;32;20225;-63
2023/09/12 02:57:33;;;;;;;2.63;1.97;;;;;;;20.13;86.22;95193.38;4412597;32;20191;-64
2023/09/12 03:00:03;;;;;;;2.30;2.20;;;;;;;20.15;86.04;95193.78;4409223;32;20243;-63
2023/09/12 03:02:29;;;;;;;1.70;1.70;;;;;;;20.08;86.11;95189.03;4399706;32;20191;-63
2023/09/12 03:04:54;;;;;;;2.17;2.07;;;;;;;20.04;86.31;95195.50;4398673;32;20188;-63
2023/09/12 03:07:21;;;;;;;3.67;3.40;;;;;;;20.14;86.55;95187.62;4390065;32;20280;-63
2023/09/12 03:09:49;;;;;;;3.20;2.90;;;;;;;20.16;86.13;95190.72;4403866;32;20196;-64
2023/09/12 03:12:15;;;;;;;3.00;2.77;;;;;;;20.22;86.00;95185.81;4417214;32;20191;-63
2023/09/12 03:14:40;;;;;;;2.43;2.33;;;;;;;20.10;86.14;95184.06;4391258;32;20318;-64
2023/09/12 03:17:05;;;;;;;3.17;2.90;;;;;;;20.10;86.11;95192.16;4393962;32;20188;-64
2023/09/12 03:19:31;;;;;;;3.17;2.50;;;;;;;20.06;86.09;95187.84;4400139;32;20267;-64
2023/09/12 03:21:56;;;;;;;3.77;3.47;;;;;;;20.07;86.34;95186.69;4423751;32;20196;-63
2023/09/12 03:24:24;;;;;;;1.97;1.97;;;;;;;20.03;86.36;95188.53;4401318;32;20290;-63
2023/09/12 03:26:50;;;;;;;2.87;2.50;;;;;;;19.94;86.89;95191.47;4385018;32;20235;-63
2023/09/12 03:29:15;;;;;;;6.77;3.37;;;;;;;20.07;86.45;95184.00;4403755;32;20214;-63
2023/09/12 03:31:40;;;;;;;3.40;3.17;;;;;;;20.10;86.47;95181.38;4402100;32;20226;-64
2023/09/12 03:34:07;;;;;;;3.07;2.97;;;;;;;20.10;86.33;95186.00;4412432;32;20185;-63
2023/09/12 03:36:32;;;;;;;4.37;4.03;;;;;;;19.82;86.78;95189.69;4387616;32;20196;-64
2023/09/12 03:38:58;;;;;;;3.13;2.93;;;;;;;19.87;87.45;95196.72;4395189;32;20241;-64
2023/09/12 03:41:25;;;;;;;2.53;2.43;;;;;;;19.98;86.70;95180.75;4406839;32;20196;-63
2023/09/12 03:43:53;;;;;;;3.47;2.93;;;;;;;19.95;87.32;95176.87;4397119;32;20306;-64
2023/09/12 03:46:18;;;;;;;3.23;3.03;;;;;;;19.95;86.25;95192.25;4401807;32;20199;-64
2023/09/12 03:48:43;;;;;;;2.23;2.13;;;;;;;19.93;87.23;95183.75;4412326;32;20229;-64
2023/09/12 03:51:09;;;;;;;2.60;2.50;;;;;;;19.87;87.13;95189.41;4401106;32;20219;-64
2023/09/12 03:53:34;;;;;;;3.17;3.03;;;;;;;19.98;87.08;95191.53;4412488;32;20204;-63
2023/09/12 03:56:00;;;;;;;3.37;3.17;;;;;;;19.99;87.36;95185.00;4386798;32;20206;-64
2023/09/12 03:58:26;;;;;;;3.00;2.80;;;;;;;19.97;86.62;95184.56;4395517;32;20196;-63
2023/09/12 04:00:51;;;;;;;2.20;2.10;;;;;;;19.90;86.85;95186.00;4391429;32;20318;-64
2023/09/12 04:03:16;;;;;;;1.80;1.80;;;;;;;19.88;86.81;95192.88;4402633;32;20214;-64
2023/09/12 04:05:42;;;;;;;1.80;1.80;;;;;;;19.92;87.06;95182.19;4397634;32;20233;-64
2023/09/12 04:08:07;;;;;;;2.90;2.70;;;;;;;19.80;87.40;95191.19;4408374;32;20192;-63
2023/09/12 04:10:32;;;;;;;2.87;2.37;;;;;;;19.76;87.37;95193.03;4405429;32;20199;-63
2023/09/12 04:12:58;;;;;;;4.00;3.70;;;;;;;19.75;88.06;95192.25;4418795;32;20211;-63
2023/09/12 04:15:23;;;;;;;2.47;2.37;;;;;;;19.76;86.61;95188.41;4402160;32;20214;-63
2023/09/12 04:17:49;;;;;;;2.20;2.10;;;;;;;19.76;87.08;95185.72;4402729;32;20250;-64
2023/09/12 04:20:14;;;;;;;4.50;2.97;;;;;;;19.81;87.37;95187.34;4406423;32;20236;-64
2023/09/12 04:22:41;;;;;;;2.53;2.43;;;;;;;19.83;87.22;95191.25;4405199;32;20226;-64
2023/09/12 04:25:07;;;;;;;2.83;2.73;;;;;;;19.83;87.53;95195.84;4401881;32;20184;-64
2023/09/12 04:27:32;;;;;;;1.87;1.83;;;;;;;19.80;87.27;95191.97;4391705;32;20211;-63
2023/09/12 04:29:57;;;;;;;2.43;2.23;;;;;;;19.88;86.80;95201.75;4405556;32;20194;-63
2023/09/12 04:32:23;;;;;;;2.43;2.33;;;;;;;19.70;87.14;95203.31;4403787;32;20275;-63
2023/09/12 04:34:49;;;;;;;3.07;2.40;;;;;;;19.67;87.85;95198.63;4391533;32;20211;-64
2023/09/12 04:37:14;;;;;;;2.40;2.23;;;;;;;19.75;87.45;95203.00;4404516;32;20210;-63
2023/09/12 04:39:40;;;;;;;3.20;2.90;;;;;;;19.84;86.43;95200.13;4408574;32;20192;-63
2023/09/12 04:42:05;;;;;;;2.73;2.63;;;;;;;19.83;87.35;95196.63;4406651;32;20210;-63
2023/09/12 04:44:35;;;;;;;3.67;3.47;;;;;;;19.86;87.31;95195.16;4400913;32;20228;-63
2023/09/12 04:47:01;;;;;;;2.50;2.40;;;;;;;19.90;86.90;95194.09;4383909;32;20188;-65
2023/09/12 04:49:27;;;;;;;2.80;2.70;;;;;;;19.87;86.75;95202.09;4403756;32;20201;-63
2023/09/12 04:51:52;;;;;;;1.83;1.83;;;;;;;19.84;86.29;95192.03;4396093;32;20185;-64
2023/09/12 04:54:17;;;;;;;2.77;2.67;;;;;;;19.68;87.02;95194.81;4391324;32;20263;-64
2023/09/12 04:56:43;;;;;;;2.67;2.47;;;;;;;19.78;87.11;95193.44;4404552;32;20204;-64
2023/09/12 04:59:08;;;;;;;2.93;2.73;;;;;;;19.79;87.56;95195.78;4394045;32;20191;-64
2023/09/12 05:01:33;;;;;;;2.53;2.33;;;;;;;19.59;88.31;95198.81;4390994;32;20232;-63
2023/09/12 05:03:59;;;;;;;3.40;3.20;;;;;;;19.60;88.30;95193.09;4411157;32;20206;-64
2023/09/12 05:06:25;;;;;;;2.13;2.00;;;;;;;19.64;87.32;95202.03;4397320;32;20193;-64
2023/09/12 05:08:50;;;;;;;2.77;2.57;;;;;;;19.69;87.77;95207.13;4401183;32;20274;-64
2023/09/12 05:11:17;;;;;;;1.70;1.70;;;;;;;19.72;87.28;95211.03;4397249;32;20212;-64
2023/09/12 05:13:42;;;;;;;2.20;2.10;;;;;;;19.72;87.47;95208.34;4393150;32;20192;-64
2023/09/12 05:16:07;;;;;;;2.53;2.43;;;;;;;19.77;87.19;95200.75;4389207;32;20210;-63
2023/09/12 05:18:33;;;;;;;3.20;3.00;;;;;;;19.75;86.86;95203.00;4401820;32;20195;-64
2023/09/12 05:20:58;;;;;;;2.67;2.50;;;;;;;19.79;86.51;95205.78;4402760;32;20195;-64
2023/09/12 05:23:23;;;;;;;2.53;2.40;;;;;;;19.76;86.43;95209.94;4408183;32;20202;-64
2023/09/12 05:25:49;;;;;;;3.57;3.27;;;;;;;19.66;87.08;95212.44;4386050;32;20251;-64
2023/09/12 05:28:15;;;;;;;4.10;3.83;;;;;;;19.64;86.86;95215.47;4394911;32;20207;-63
2023/09/12 05:30:42;;;;;;;3.50;3.33;;;;;;;19.78;86.16;95209.59;4386226;32;20203;-64
2023/09/12 05:33:07;;;;;;;2.67;2.57;;;;;;;19.73;86.55;95218.75;4387114;32;20231;-64
2023/09/12 05:35:33;;;;;;;3.53;3.23;;;;;;;19.67;87.08;95214.78;4396220;32;20192;-64
2023/09/12 05:37:58;;;;;;;2.03;1.93;;;;;;;19.59;87.47;95214.97;4402236;32;20214;-64
2023/09/12 05:40:23;;;;;;;2.33;2.23;;;;;;;19.64;87.95;95222.78;4397995;32;20232;-64
2023/09/12 05:42:49;;;;;;;2.67;2.57;;;;;;;19.68;87.06;95210.19;4408039;32;20191;-64
2023/09/12 05:45:14;;;;;;;2.23;2.20;;;;;;;19.72;87.32;95211.81;4403476;32;20198;-64
2023/09/12 05:47:39;;;;;;;2.77;2.67;;;;;;;19.87;86.57;95219.03;4398880;32;20223;-64
2023/09/12 05:50:06;;;;;;;2.27;2.17;;;;;;;19.88;86.76;95215.22;4402292;32;20314;-64
2023/09/12 05:52:32;;;;;;;2.47;2.37;;;;;;;19.96;86.19;95221.50;4410792;32;20201;-64
2023/09/12 05:54:57;;;;;;;2.67;2.47;;;;;;;20.02;86.00;95225.47;4400993;32;20203;-64
2023/09/12 05:57:23;;;;;;;2.93;2.70;;;;;;;19.99;85.98;95226.19;4400759;32;20191;-64
2023/09/12 05:59:50;;;;;;;6.73;2.30;;;;;;;19.95;84.85;95225.34;4398794;32;20238;-63
2023/09/12 06:02:15;;;;;;;2.80;2.70;;;;;;;19.97;85.99;95233.03;4377442;32;20253;-66
2023/09/12 06:04:40;;;;;;;2.43;2.33;;;;;;;20.02;86.18;95230.84;4389394;32;20199;-66
2023/09/12 06:07:06;;;;;;;2.33;2.23;;;;;;;19.96;86.42;95231.50;4396476;32;20204;-64
2023/09/12 06:09:31;;;;;;;2.80;2.60;;;;;;;19.95;86.16;95224.56;4381403;32;20221;-64
2023/09/12 06:11:56;;;;;;;3.33;3.13;;;;;;;20.00;86.09;95232.34;4375436;32;20196;-64
2023/09/12 06:14:22;;;;;;;6.60;2.67;;;;;;;19.92;86.09;95227.97;4397292;32;20313;-63
2023/09/12 06:16:48;;;;;;;4.00;3.70;;;;;;;19.90;86.07;95231.78;4391936;32;20195;-64
2023/09/12 06:19:14;;;;;;;7.90;2.40;;;;;;;19.83;85.64;95230.88;4416846;32;20213;-64
2023/09/12 06:21:40;;;;;;;3.10;2.87;;;;;;;19.84;86.05;95235.91;4416106;32;20188;-64
2023/09/12 06:24:17;;;;;;;6.13;3.70;;;;;;;19.85;85.12;95234.75;4406702;32;20184;-64
2023/09/12 06:26:43;;;;;;;2.43;2.33;;;;;;;19.84;85.87;95240.50;4403357;32;20191;-64
2023/09/12 06:29:08;;;;;;;3.00;2.90;;;;;;;19.89;85.36;95237.53;4407953;32;20200;-64
2023/09/12 06:31:35;;;;;;;2.67;2.47;;;;;;;19.93;85.83;95233.00;4428635;32;20249;-63
2023/09/12 06:34:02;;;;;;;2.60;2.50;;;;;;;20.05;85.24;95240.16;4392268;32;20203;-64
2023/09/12 06:36:29;;;;;;;1.93;1.93;;;;;;;20.00;85.17;95235.81;4358927;32;20195;-64
2023/09/12 06:38:55;;;;;;;2.80;2.60;;;;;;;20.01;86.10;95239.28;4392275;32;20203;-63
2023/09/12 06:41:21;;;;;;;2.37;2.27;;;;;;;20.05;85.14;95240.16;4404981;32;20241;-64
2023/09/12 06:43:46;;;;;;;2.90;2.80;;;;;;;20.10;85.35;95239.88;4417353;32;20227;-64
2023/09/12 06:46:12;;;;;;;6.23;3.03;;;;;;;20.11;85.65;95233.34;4405381;32;20199;-63
2023/09/12 06:48:37;;;;;;;3.90;3.13;;;;;;;20.13;86.30;95236.47;4413083;32;20222;-63
2023/09/12 06:51:08;;;;;;;2.47;2.37;;;;;;;20.13;85.38;95237.25;4391140;32;20212;-64
2023/09/12 06:53:34;;;;;;;3.43;2.67;;;;;;;20.20;85.27;95247.34;4403123;32;20200;-63
2023/09/12 06:55:59;;;;;;;2.67;2.47;;;;;;;20.28;85.21;95238.28;4403840;32;20205;-65
2023/09/12 06:58:25;;;;;;;2.60;2.50;;;;;;;20.31;84.81;95237.56;4385467;32;20295;-66
2023/09/12 07:00:51;;;;;;;2.70;2.37;;;;;;;20.32;84.76;95244.53;4408089;32;21381;-63
2023/09/12 07:03:16;;;;;;;3.07;2.87;;;;;;;20.36;85.11;95236.50;4420017;32;20183;-61
2023/09/12 07:05:42;;;;;;;2.93;2.83;;;;;;;20.40;84.57;95243.53;4420332;32;20194;-63
2023/09/12 07:08:08;;;;;;;3.87;3.67;;;;;;;20.42;84.35;95249.34;4363827;32;20244;-62
2023/09/12 07:10:34;;;;;;;2.97;2.87;;;;;;;20.48;83.87;95242.53;4392876;32;20231;-62
2023/09/12 07:12:59;;;;;;;2.50;2.40;;;;;;;20.59;83.90;95242.69;4420619;32;20210;-62
2023/09/12 07:15:24;;;;;;;3.20;3.00;;;;;;;20.65;83.47;95252.06;4404089;32;20239;-63
2023/09/12 07:17:50;;;;;;;2.83;2.73;;;;;;;20.68;83.15;95250.56;4396398;32;20284;-63
2023/09/12 07:20:17;;;;;;;3.07;2.87;;;;;;;20.71;83.60;95250.63;4408342;32;20218;-62
2023/09/12 07:22:43;;;;;;;3.10;3.00;;;;;;;20.76;83.86;95255.72;4405101;32;20207;-63
2023/09/12 07:25:11;;;;;;;4.73;4.43;;;;;;;20.78;83.99;95258.84;4419785;32;20259;-63
2023/09/12 07:27:37;;;;;;;3.40;2.63;;;;;;;20.80;83.66;95258.47;4408782;32;20188;-64
2023/09/12 07:30:07;;;;;;;2.80;2.60;;;;;;;20.85;83.10;95255.47;4409857;32;20206;-63
2023/09/12 07:32:33;;;;;;;4.07;3.63;;;;;;;20.91;82.82;95264.84;4414664;32;20237;-64
2023/09/12 07:34:58;;;;;;;3.33;3.13;;;;;;;20.96;82.71;95255.66;4410807;32;20231;-64
2023/09/12 07:37:24;;;;;;;5.23;4.63;;;;;;;20.99;82.43;95254.94;4417268;32;20183;-64
2023/09/12 07:39:50;;;;;;;7.50;3.10;;;;;;;21.04;82.44;95257.31;4415249;32;20195;-65
2023/09/12 07:42:15;;;;;;;3.13;2.87;;;;;;;21.07;82.62;95254.69;4414150;32;20202;-64
2023/09/12 07:44:41;;;;;;;3.77;3.57;;;;;;;21.15;81.92;95256.34;4396598;32;20195;-62
2023/09/12 07:47:07;;;;;;;4.07;3.67;;;;;;;21.18;81.67;95247.53;4419767;32;20196;-63
2023/09/12 07:49:32;;;;;;;6.57;4.67;;;;;;;21.25;81.56;95253.06;4408813;32;20198;-64
2023/09/12 07:51:57;;;;;;;7.30;6.80;;;;;;;21.26;81.48;95251.13;4422067;32;20169;-64
2023/09/12 07:54:23;;;;;;;26.17;20.17;;;;;;;21.36;80.90;95264.03;4408122;32;20234;-64
2023/09/12 07:56:48;;;;;;;9.23;8.63;;;;;;;21.43;80.73;95263.34;4407913;32;20232;-65
2023/09/12 07:59:14;;;;;;;19.23;8.17;;;;;;;21.47;80.71;95262.25;4420565;32;20214;-63
2023/09/12 08:01:40;;;;;;;9.80;8.50;;;;;;;21.52;80.48;95261.16;4410428;32;20207;-63
2023/09/12 08:04:05;;;;;;;6.97;6.47;;;;;;;21.56;80.43;95262.78;4419766;32;20192;-62
2023/09/12 08:06:31;;;;;;;5.57;5.17;;;;;;;21.63;80.21;95262.06;4414278;32;20195;-62
2023/09/12 08:08:58;;;;;;;5.23;4.80;;;;;;;21.62;80.29;95265.91;4398929;32;20241;-62
2023/09/12 08:11:23;;;;;;;2.43;2.33;;;;;;;21.67;79.97;95262.91;4411869;32;20196;-63
2023/09/12 08:13:49;;;;;;;2.67;2.50;;;;;;;21.71;79.68;95271.84;4416603;32;20206;-62
2023/09/12 08:16:15;;;;;;;2.73;2.57;;;;;;;21.75;79.64;95264.56;4403621;32;20189;-63
2023/09/12 08:18:40;;;;;;;2.13;2.03;;;;;;;21.81;79.67;95263.13;4412422;32;20231;-63
2023/09/12 08:21:06;;;;;;;2.47;2.37;;;;;;;21.85;79.46;95263.91;4407818;32;20192;-62
2023/09/12 08:23:31;;;;;;;3.30;3.10;;;;;;;21.90;79.44;95266.31;4403588;32;20204;-67
2023/09/12 08:25:56;;;;;;;3.07;2.87;;;;;;;21.93;79.38;95265.56;4425438;32;20188;-64
2023/09/12 08:28:22;;;;;;;2.17;2.07;;;;;;;21.99;79.21;95259.84;4410237;32;20187;-64
2023/09/12 08:30:47;;;;;;;1.90;1.90;;;;;;;22.01;79.36;95260.28;4424171;32;20196;-65
2023/09/12 08:33:12;;;;;;;2.80;2.43;;;;;;;22.01;79.29;95263.78;4414505;32;20204;-63
2023/09/12 08:35:38;;;;;;;2.60;2.50;;;;;;;22.11;78.49;95262.34;4416075;32;20192;-62
2023/09/12 08:38:05;;;;;;;2.33;2.23;;;;;;;22.25;77.62;95259.78;4417705;32;20229;-63
2023/09/12 08:40:32;;;;;;;2.87;2.77;;;;;;;22.32;76.99;95259.87;4428292;32;20253;-63
2023/09/12 08:42:58;;;;;;;2.07;1.97;;;;;;;22.38;77.14;95263.81;4405133;32;20195;-64
2023/09/12 08:45:23;;;;;;;4.17;3.97;;;;;;;22.46;76.65;95264.66;4412167;32;20196;-65
2023/09/12 08:47:51;;;;;;;2.43;2.33;;;;;;;22.54;76.58;95258.16;4407369;32;20218;-65
2023/09/12 08:50:17;;;;;;;2.30;2.20;;;;;;;22.65;75.83;95255.59;4406053;32;20210;-65
2023/09/12 08:52:45;;;;;;;2.50;2.40;;;;;;;22.71;75.54;95259.50;4402361;32;20196;-64
2023/09/12 08:55:11;;;;;;;2.53;2.33;;;;;;;22.77;75.45;95253.41;4396074;32;20211;-64
2023/09/12 08:57:40;;;;;;;2.30;2.20;;;;;;;22.84;75.31;95255.41;4402710;32;20201;-63
2023/09/12 09:00:08;;;;;;;2.50;2.40;;;;;;;22.89;74.57;95255.03;4405525;32;20292;-64
2023/09/12 09:02:35;;;;;;;1.47;1.47;;;;;;;22.92;74.86;95260.50;4417804;32;20303;-63
2023/09/12 09:05:03;;;;;;;2.77;2.67;;;;;;;22.94;75.09;95258.19;4405789;32;20230;-64
2023/09/12 09:07:28;;;;;;;2.73;2.63;;;;;;;22.99;75.09;95250.88;4415124;32;20196;-65
2023/09/12 09:09:55;;;;;;;3.37;3.17;;;;;;;23.04;74.59;95254.03;4405558;32;20261;-63
2023/09/12 09:12:21;;;;;;;3.40;3.20;;;;;;;22.95;76.44;95256.25;4411442;32;22825;-64
2023/09/12 09:14:46;;;;;;;2.83;2.63;;;;;;;22.93;75.58;95253.16;4388191;32;20192;-63
2023/09/12 09:17:13;;;;;;;4.50;2.53;;;;;;;22.99;74.83;95253.59;4417591;32;20206;-64
2023/09/12 09:19:44;;;;;;;3.07;2.87;;;;;;;23.03;74.07;95252.47;4412431;32;20206;-64
2023/09/12 09:22:10;;;;;;;2.63;2.53;;;;;;;23.09;74.06;95247.47;4410000;32;20211;-63
2023/09/12 09:24:35;;;;;;;2.93;2.67;;;;;;;23.18;73.71;95251.44;4415632;32;20241;-62
2023/09/12 09:27:01;;;;;;;2.40;2.30;;;;;;;23.20;74.08;95245.63;4410324;32;20196;-63
2023/09/12 09:29:31;;;;;;;6.13;5.63;;;;;;;23.22;73.80;95246.81;4412889;32;20200;-63
2023/09/12 09:31:59;;;;;;;2.97;2.77;;;;;;;23.26;73.13;95244.16;4421059;32;20257;-63
2023/09/12 09:34:24;;;;;;;2.63;2.53;;;;;;;23.31;72.41;95236.44;4421784;32;20188;-63
2023/09/12 09:36:51;;;;;;;4.43;3.10;;;;;;;23.37;73.02;95236.06;4408055;32;20247;-65
2023/09/12 09:39:18;;;;;;;2.67;2.57;;;;;;;23.45;72.18;95238.47;4409368;32;20325;-62
2023/09/12 09:41:50;;;;;;;1.57;1.57;;;;;;;23.54;71.32;95235.44;4390143;32;20207;-66
2023/09/12 09:44:16;;;;;;;2.63;2.53;;;;;;;23.64;69.78;95234.72;4410696;32;20200;-63
2023/09/12 09:46:45;;;;;;;2.70;2.60;;;;;;;23.67;69.99;95230.50;4417624;32;20223;-64
2023/09/12 09:49:11;;;;;;;1.83;1.83;;;;;;;23.69;70.36;95228.97;4407396;32;20231;-63
2023/09/12 09:51:44;;;;;;;2.07;2.00;;;;;;;23.72;69.77;95230.88;4412803;32;20283;-63
2023/09/12 09:54:12;;;;;;;1.63;1.63;;;;;;;23.71;70.76;95228.56;4412235;32;20193;-63
2023/09/12 09:56:46;;;;;;;3.03;2.87;;;;;;;23.76;70.22;95230.91;4413906;32;20193;-66
2023/09/12 09:59:14;;;;;;;5.83;5.40;;;;;;;23.82;69.22;95227.47;4412012;32;20191;-66
2023/09/12 10:01:41;;;;;;;2.27;2.20;;;;;;;23.90;68.59;95226.31;4402137;32;20192;-64
2023/09/12 10:04:07;;;;;;;2.13;2.03;;;;;;;23.96;67.70;95232.16;4411463;32;20187;-64
2023/09/12 10:06:36;;;;;;;2.13;2.03;;;;;;;23.96;68.86;95229.44;4420270;32;20210;-64
2023/09/12 10:09:10;;;;;;;2.93;2.50;;;;;;;23.99;68.90;95221.34;4405722;32;20207;-67
2023/09/12 10:11:37;;;;;;;1.37;1.30;;;;;;;23.97;68.91;95220.94;4414123;32;20207;-64
2023/09/12 10:14:04;;;;;;;2.23;2.13;;;;;;;24.03;69.81;95220.56;4435499;32;20176;-65
2023/09/12 10:16:31;;;;;;;4.63;4.40;;;;;;;24.06;68.03;95222.53;4417353;32;20206;-63
2023/09/12 10:19:21;;;;;;;3.90;3.70;;;;;;;24.09;67.76;95219.84;4416925;32;20218;-63
2023/09/12 10:22:00;;;;;;;7.30;5.53;;;;;;;24.20;66.58;95219.84;4411471;32;20203;-63
2023/09/12 10:24:27;;;;;;;6.83;5.50;;;;;;;24.17;66.10;95220.63;4427425;32;20232;-63
2023/09/12 10:26:54;;;;;;;4.83;4.53;;;;;;;24.20;65.93;95226.06;4418910;32;20211;-64
2023/09/12 10:29:20;;;;;;;4.60;3.33;;;;;;;24.19;65.84;95227.22;4411612;32;20240;-64
2023/09/12 10:31:47;;;;;;;4.63;4.33;;;;;;;24.21;66.32;95224.13;4404506;32;20208;-63
2023/09/12 10:34:14;;;;;;;8.13;7.63;;;;;;;24.20;65.77;95212.50;4416422;32;20230;-64
2023/09/12 10:36:41;;;;;;;4.80;4.50;;;;;;;24.23;64.90;95216.38;4420926;32;20192;-63
2023/09/12 10:39:08;;;;;;;5.97;3.67;;;;;;;24.22;65.22;95215.59;4406338;32;20183;-63
2023/09/12 10:41:37;;;;;;;3.07;2.87;;;;;;;24.21;66.03;95213.28;4412785;32;20236;-63
2023/09/12 10:44:10;;;;;;;2.03;1.93;;;;;;;24.32;64.54;95209.44;4421577;32;20188;-64
2023/09/12 10:46:38;;;;;;;3.97;2.10;;;;;;;24.35;64.30;95207.91;4410880;32;20192;-63
2023/09/12 10:49:10;;;;;;;1.90;1.80;;;;;;;24.47;63.76;95210.28;4408871;32;20231;-64
2023/09/12 10:51:41;;;;;;;1.87;1.77;;;;;;;24.41;64.64;95209.09;4421328;32;20259;-64
2023/09/12 10:54:08;;;;;;;1.70;1.60;;;;;;;24.39;65.65;95214.13;4391781;32;20241;-63
2023/09/12 10:56:34;;;;;;;2.30;2.20;;;;;;;24.43;65.81;95204.06;4410759;32;20280;-64
2023/09/12 10:59:09;;;;;;;1.57;1.57;;;;;;;24.42;66.10;95213.34;4415038;32;20192;-63
2023/09/12 11:01:39;;;;;;;1.10;1.10;;;;;;;24.40;66.06;95201.34;4413810;32;20194;-63
2023/09/12 11:04:19;;;;;;;2.00;1.90;;;;;;;24.47;65.47;95204.84;4415529;32;20176;-64
2023/09/12 11:06:45;;;;;;;1.57;1.47;;;;;;;24.51;64.68;95202.16;4410796;32;20191;-64
2023/09/12 11:09:19;;;;;;;1.70;1.60;;;;;;;24.56;64.96;95202.50;4408527;32;20242;-63
2023/09/12 11:11:49;;;;;;;3.27;3.07;;;;;;;24.58;64.16;95200.19;4406230;32;20214;-63
2023/09/12 11:14:16;;;;;;;10.90;4.33;;;;;;;24.58;65.48;95199.41;4399752;32;20258;-63
2023/09/12 11:16:43;;;;;;;3.73;3.47;;;;;;;24.61;63.84;95204.84;4405339;32;20278;-64
2023/09/12 11:19:16;;;;;;;2.80;2.70;;;;;;;24.64;62.70;95200.59;4417585;32;20218;-64
2023/09/12 11:21:44;;;;;;;2.17;2.07;;;;;;;24.62;63.71;95200.97;4410407;32;20271;-63
2023/09/12 11:24:09;;;;;;;2.20;2.10;;;;;;;24.70;63.75;95195.56;4407766;32;20200;-64
2023/09/12 11:26:35;;;;;;;1.83;1.83;;;;;;;24.77;64.30;95203.69;4410879;32;20247;-63
2023/09/12 11:29:12;;;;;;;2.70;1.70;;;;;;;24.70;64.71;95203.72;4402084;32;20246;-65
2023/09/12 11:31:41;;;;;;;2.63;2.53;;;;;;;24.68;64.30;95195.97;4407044;32;20187;-66